Time;durP1;ratioP1;P1;durP2;ratioP2;P2;SDS_P1;SDS_P2;PMS_P1;PMS_P2;Temp;Humidity;BMP_temperature;BMP_pressure;BME280_temperature;BME280_humidity;BME280_pressure;Samples;Min_cycle;Max_cycle;Signal;HPM_P1;HPM_P2
2024/02/01 00:02:13;;;;;;;3.80;3.10;;;;;;;17.66;50.48;98866.02;105420;1260;65940;-42
2024/02/01 00:04:39;;;;;;;3.70;2.90;;;;;;;17.65;50.52;98861.27;105379;1254;72396;-41
2024/02/01 00:07:06;;;;;;;3.80;3.30;;;;;;;17.65;50.46;98864.80;105448;1260;61259;-41
2024/02/01 00:09:33;;;;;;;3.60;3.20;;;;;;;17.66;50.47;98865.16;105701;1254;61298;-40
2024/02/01 00:11:59;;;;;;;3.20;2.90;;;;;;;17.65;50.46;98864.52;105693;1255;75201;-41
2024/02/01 00:14:27;;;;;;;3.80;3.30;;;;;;;17.65;50.57;98857.38;105692;1254;66164;-41
2024/02/01 00:16:53;;;;;;;3.60;3.30;;;;;;;17.64;50.42;98858.75;105487;1254;72596;-40
2024/02/01 00:19:20;;;;;;;3.70;3.30;;;;;;;17.64;50.51;98857.18;105445;1260;61230;-41
2024/02/01 00:21:49;;;;;;;3.40;3.10;;;;;;;17.64;50.47;98852.68;105353;1257;61340;-42
2024/02/01 00:24:16;;;;;;;3.50;3.20;;;;;;;17.64;50.49;98851.61;105458;1259;75016;-41
2024/02/01 00:26:42;;;;;;;4.30;3.20;;;;;;;17.63;50.44;98845.46;105559;1258;65478;-41
2024/02/01 00:29:09;;;;;;;3.30;3.00;;;;;;;17.64;50.47;98840.77;105458;1254;72394;-41
2024/02/01 00:31:36;;;;;;;3.50;3.20;;;;;;;17.64;50.46;98835.26;105405;1258;61243;-41
2024/02/01 00:34:03;;;;;;;4.50;3.30;;;;;;;17.63;50.43;98830.30;105413;1258;61345;-39
2024/02/01 00:36:30;;;;;;;3.40;3.10;;;;;;;17.64;50.43;98831.31;105559;1260;74403;-41
2024/02/01 00:38:56;;;;;;;4.00;3.00;;;;;;;17.63;50.55;98821.85;105423;1260;65203;-42
2024/02/01 00:41:23;;;;;;;3.50;3.20;;;;;;;17.63;50.46;98813.73;105589;1254;72580;-42
2024/02/01 00:43:50;;;;;;;3.10;2.80;;;;;;;17.63;50.44;98807.00;105558;1259;61167;-42
2024/02/01 00:46:16;;;;;;;3.40;3.10;;;;;;;17.63;50.47;98799.63;105424;1254;61278;-40
2024/02/01 00:48:43;;;;;;;4.50;3.30;;;;;;;17.64;50.48;98806.71;105687;1255;74406;-40
2024/02/01 00:51:10;;;;;;;3.00;2.70;;;;;;;17.63;50.46;98807.46;105663;1259;65603;-41
2024/02/01 00:53:37;;;;;;;3.60;3.20;;;;;;;17.62;50.47;98800.35;105644;1254;72056;-41
2024/02/01 00:56:04;;;;;;;3.20;2.90;;;;;;;17.63;50.51;98787.02;105481;1259;61231;-41
2024/02/01 00:58:31;;;;;;;3.90;3.20;;;;;;;17.63;50.43;98781.44;105491;1259;61943;-41
2024/02/01 01:00:57;;;;;;;3.40;3.10;;;;;;;17.63;50.44;98773.69;105377;1255;74399;-41
2024/02/01 01:03:24;;;;;;;3.30;3.00;;;;;;;17.63;50.43;98767.83;105437;1258;65546;-40
2024/02/01 01:05:51;;;;;;;3.40;3.10;;;;;;;17.63;50.46;98766.80;105550;1254;72629;-40
2024/02/01 01:08:18;;;;;;;3.30;3.00;;;;;;;17.63;50.45;98769.60;105667;1259;61266;-40
2024/02/01 01:10:45;;;;;;;3.30;3.00;;;;;;;17.62;50.44;98763.52;105635;1254;61270;-41
2024/02/01 01:13:13;;;;;;;4.30;3.50;;;;;;;17.63;50.39;98763.29;105653;1260;74353;-41
2024/02/01 01:15:39;;;;;;;2.90;2.70;;;;;;;17.62;50.50;98758.64;105627;1258;65937;-40
2024/02/01 01:18:07;;;;;;;3.60;3.00;;;;;;;17.63;50.43;98754.23;105576;1254;72509;-40
2024/02/01 01:20:34;;;;;;;3.70;3.30;;;;;;;17.63;50.42;98751.86;105550;1259;61215;-41
2024/02/01 01:23:01;;;;;;;3.60;3.20;;;;;;;17.62;50.38;98753.39;105382;1259;61349;-41
2024/02/01 01:25:28;;;;;;;3.50;3.20;;;;;;;17.62;50.40;98751.43;105435;1254;75037;-41
2024/02/01 01:27:54;;;;;;;3.30;3.00;;;;;;;17.62;50.43;98749.67;105578;1259;66206;-41
2024/02/01 01:30:21;;;;;;;3.30;3.00;;;;;;;17.62;50.35;98752.30;105403;1257;72469;-40
2024/02/01 01:32:47;;;;;;;3.50;3.00;;;;;;;17.62;50.37;98748.10;105620;1260;61248;-40
2024/02/01 01:35:14;;;;;;;3.40;3.10;;;;;;;17.62;50.42;98743.16;105436;1257;61243;-41
2024/02/01 01:37:41;;;;;;;3.40;3.10;;;;;;;17.62;50.39;98739.68;105625;1254;74485;-41
2024/02/01 01:40:08;;;;;;;3.30;3.00;;;;;;;17.61;50.44;98736.41;105419;1254;66124;-42
2024/02/01 01:42:34;;;;;;;3.80;3.50;;;;;;;17.61;50.45;98732.98;105884;1254;72624;-40
2024/02/01 01:45:01;;;;;;;3.70;3.10;;;;;;;17.61;50.43;98731.36;105549;1254;61170;-41
2024/02/01 01:47:28;;;;;;;3.50;3.20;;;;;;;17.62;50.44;98724.11;105557;1254;61291;-41
2024/02/01 01:49:54;;;;;;;3.50;3.00;;;;;;;17.62;50.42;98720.46;105544;1260;74402;-39
2024/02/01 01:52:21;;;;;;;3.90;3.20;;;;;;;17.61;50.43;98717.66;105678;1260;66156;-41
2024/02/01 01:54:48;;;;;;;3.80;3.30;;;;;;;17.62;50.45;98707.46;105589;1260;72593;-41
2024/02/01 01:57:15;;;;;;;3.30;3.00;;;;;;;17.61;50.37;98702.11;105147;1259;61628;-40
2024/02/01 01:59:41;;;;;;;3.30;2.90;;;;;;;17.61;50.42;98703.04;105416;1257;61366;-41
2024/02/01 02:02:08;;;;;;;3.40;3.10;;;;;;;17.62;50.40;98700.41;105442;1259;73459;-41
2024/02/01 02:04:35;;;;;;;4.80;3.20;;;;;;;17.61;50.33;98694.75;105471;1259;65495;-41
2024/02/01 02:07:02;;;;;;;3.50;3.20;;;;;;;17.61;50.43;98687.55;105394;1254;72683;-41
2024/02/01 02:09:28;;;;;;;4.10;3.00;;;;;;;17.61;50.39;98688.57;105453;1258;61261;-41
2024/02/01 02:11:55;;;;;;;3.50;3.10;;;;;;;17.61;50.40;98692.36;105615;1254;61352;-40
2024/02/01 02:14:22;;;;;;;3.40;3.10;;;;;;;17.61;50.43;98685.39;105543;1260;74488;-41
2024/02/01 02:16:48;;;;;;;3.20;2.90;;;;;;;17.61;50.37;98680.61;105357;1259;66020;-39
2024/02/01 02:19:16;;;;;;;3.50;3.20;;;;;;;17.61;50.44;98677.58;105667;1254;72556;-41
2024/02/01 02:21:47;;;;;;;3.70;3.10;;;;;;;17.61;50.29;98672.48;105493;1260;61331;-42
2024/02/01 02:24:14;;;;;;;3.70;3.20;;;;;;;17.61;50.42;98669.84;105667;1254;61234;-40
2024/02/01 02:26:42;;;;;;;3.10;2.80;;;;;;;17.62;50.30;98669.38;105598;1259;74559;-41
2024/02/01 02:29:09;;;;;;;3.70;3.30;;;;;;;17.61;50.39;98667.89;105616;1260;66234;-41
2024/02/01 02:31:36;;;;;;;3.80;3.30;;;;;;;17.61;50.40;98666.36;105662;1254;72596;-40
2024/02/01 02:34:03;;;;;;;3.70;3.00;;;;;;;17.62;50.40;98660.01;105596;1259;61576;-40
2024/02/01 02:36:30;;;;;;;3.60;3.30;;;;;;;17.61;50.37;98660.79;105433;1254;61237;-40
2024/02/01 02:38:56;;;;;;;3.70;3.10;;;;;;;17.62;50.34;98657.72;105486;1254;74428;-41
2024/02/01 02:41:23;;;;;;;3.40;3.10;;;;;;;17.62;50.36;98654.21;105502;1260;66033;-41
2024/02/01 02:43:50;;;;;;;4.70;3.40;;;;;;;17.62;50.36;98653.52;105613;1259;72319;-40
2024/02/01 02:46:17;;;;;;;4.20;2.80;;;;;;;17.62;50.27;98654.53;105431;1260;61323;-41
2024/02/01 02:48:43;;;;;;;3.40;3.10;;;;;;;17.61;50.33;98648.27;105423;1254;61276;-41
2024/02/01 02:51:11;;;;;;;3.70;3.20;;;;;;;17.61;50.40;98645.23;105499;1254;74948;-39
2024/02/01 02:53:38;;;;;;;3.00;2.80;;;;;;;17.61;50.27;98642.67;105650;1260;66111;-41
2024/02/01 02:56:07;;;;;;;3.60;3.10;;;;;;;17.62;50.32;98637.83;105569;1254;72947;-41
2024/02/01 02:58:35;;;;;;;3.30;3.00;;;;;;;17.62;50.33;98634.96;105456;1259;61336;-41
2024/02/01 03:01:08;;;;;;;3.50;2.70;;;;;;;17.61;50.30;98629.90;105477;1254;61218;-41
2024/02/01 03:03:40;;;;;;;3.40;3.10;;;;;;;17.62;50.31;98626.67;105478;1254;73330;-41
2024/02/01 03:06:10;;;;;;;3.50;3.20;;;;;;;17.61;50.27;98621.23;105495;1259;65854;-41
2024/02/01 03:08:43;;;;;;;3.60;3.00;;;;;;;17.62;50.26;98616.98;105636;1259;72421;-41
2024/02/01 03:11:11;;;;;;;3.50;3.20;;;;;;;17.61;50.28;98614.03;105656;1258;61273;-41
2024/02/01 03:13:39;;;;;;;3.50;3.20;;;;;;;17.61;50.35;98615.59;105696;1254;61310;-41
2024/02/01 03:16:17;;;;;;;4.50;3.20;;;;;;;17.61;50.22;98607.38;105586;1260;74474;-41
2024/02/01 03:18:45;;;;;;;3.10;2.80;;;;;;;17.61;50.28;98604.29;105493;1254;65083;-40
2024/02/01 03:21:12;;;;;;;3.70;3.10;;;;;;;17.60;50.23;98597.37;105448;1254;72939;-41
2024/02/01 03:23:43;;;;;;;3.20;2.90;;;;;;;17.61;50.20;98589.33;105493;1254;61228;-41
2024/02/01 03:26:10;;;;;;;3.40;3.10;;;;;;;17.61;50.24;98580.36;105620;1254;61252;-41
2024/02/01 03:28:42;;;;;;;3.40;2.90;;;;;;;17.61;50.23;98575.95;105562;1254;74335;-41
2024/02/01 03:31:09;;;;;;;3.80;3.40;;;;;;;17.61;50.26;98570.92;105616;1257;66330;-40
2024/02/01 03:33:44;;;;;;;3.30;3.00;;;;;;;17.61;50.23;98568.81;105658;1254;72510;-40
2024/02/01 03:36:11;;;;;;;3.50;3.20;;;;;;;17.61;50.25;98567.03;105629;1260;61474;-41
2024/02/01 03:38:40;;;;;;;3.30;3.00;;;;;;;17.61;50.29;98559.70;105609;1255;61244;-41
2024/02/01 03:41:06;;;;;;;3.30;3.00;;;;;;;17.61;50.26;98546.92;105634;1254;75147;-40
2024/02/01 03:43:33;;;;;;;3.40;3.00;;;;;;;17.61;50.25;98539.17;105633;1258;66012;-40
2024/02/01 03:46:00;;;;;;;7.70;3.00;;;;;;;17.61;50.20;98533.82;105674;1254;72512;-41
2024/02/01 03:48:27;;;;;;;3.60;3.00;;;;;;;17.61;50.27;98531.82;105395;1259;61266;-41
2024/02/01 03:50:54;;;;;;;3.40;3.10;;;;;;;17.61;50.27;98532.36;105415;1254;61279;-41
2024/02/01 03:53:21;;;;;;;3.30;3.00;;;;;;;17.60;50.24;98531.71;105592;1257;74602;-41
2024/02/01 03:55:51;;;;;;;3.20;2.90;;;;;;;17.61;50.18;98523.63;105597;1259;66254;-41
2024/02/01 03:58:17;;;;;;;3.20;2.90;;;;;;;17.60;50.19;98520.27;105653;1254;72383;-40
2024/02/01 04:00:47;;;;;;;3.20;2.90;;;;;;;17.61;50.27;98527.96;105454;1260;61341;-39
2024/02/01 04:03:14;;;;;;;3.30;3.00;;;;;;;17.61;50.22;98535.80;105520;1254;61227;-41
2024/02/01 04:05:42;;;;;;;3.60;3.00;;;;;;;17.61;50.27;98530.61;105543;1254;74277;-42
2024/02/01 04:08:09;;;;;;;3.50;3.10;;;;;;;17.61;50.24;98531.30;105640;1257;66291;-42
2024/02/01 04:10:37;;;;;;;4.40;3.40;;;;;;;17.61;50.22;98529.59;105723;1254;73138;-40
2024/02/01 04:13:07;;;;;;;3.70;3.10;;;;;;;17.61;50.28;98524.81;105540;1258;61264;-40
2024/02/01 04:15:34;;;;;;;3.30;2.80;;;;;;;17.62;50.21;98525.05;105473;1254;61197;-41
2024/02/01 04:18:04;;;;;;;3.60;3.10;;;;;;;17.61;50.19;98521.39;105614;1259;74545;-41
2024/02/01 04:20:31;;;;;;;3.10;2.80;;;;;;;17.62;50.23;98520.02;105661;1259;66183;-41
2024/02/01 04:22:58;;;;;;;3.30;3.00;;;;;;;17.61;50.19;98519.84;105620;1256;72379;-40
2024/02/01 04:25:25;;;;;;;3.60;3.00;;;;;;;17.61;50.20;98516.91;105503;1260;61233;-40
2024/02/01 04:27:52;;;;;;;4.10;3.00;;;;;;;17.61;50.20;98514.13;105668;1254;61301;-39
2024/02/01 04:30:19;;;;;;;3.30;3.00;;;;;;;17.61;50.21;98509.49;105616;1259;74349;-40
2024/02/01 04:32:46;;;;;;;3.10;2.80;;;;;;;17.61;50.19;98508.55;105576;1258;65709;-41
2024/02/01 04:35:14;;;;;;;3.30;3.00;;;;;;;17.61;50.17;98511.65;105415;1254;72574;-41
2024/02/01 04:37:41;;;;;;;3.10;2.80;;;;;;;17.61;50.26;98502.59;105676;1255;61265;-41
2024/02/01 04:40:08;;;;;;;3.10;2.80;;;;;;;17.61;50.23;98501.52;105610;1254;61258;-40
2024/02/01 04:42:35;;;;;;;3.60;2.90;;;;;;;17.61;50.18;98495.92;106002;1255;74608;-42
2024/02/01 04:45:04;;;;;;;3.70;3.30;;;;;;;17.62;50.20;98494.39;105618;1259;65685;-41
2024/02/01 04:47:32;;;;;;;3.40;3.10;;;;;;;17.61;50.18;98487.42;105945;1254;72474;-41
2024/02/01 04:50:00;;;;;;;3.10;2.80;;;;;;;17.62;50.21;98480.79;105735;1258;61244;-41
2024/02/01 04:52:27;;;;;;;3.20;2.90;;;;;;;17.62;50.16;98480.48;106045;1254;61279;-41
2024/02/01 04:54:54;;;;;;;3.50;3.10;;;;;;;17.62;50.18;98482.86;105577;1254;74393;-39
2024/02/01 04:57:21;;;;;;;3.80;3.00;;;;;;;17.61;50.12;98478.98;105677;1258;65769;-40
2024/02/01 04:59:48;;;;;;;3.20;2.90;;;;;;;17.62;50.17;98478.15;105547;1254;72369;-40
2024/02/01 05:02:14;;;;;;;3.30;3.00;;;;;;;17.62;50.11;98476.52;105568;1258;61346;-41
2024/02/01 05:04:42;;;;;;;3.30;2.90;;;;;;;17.62;50.14;98477.39;105553;1254;61454;-41
2024/02/01 05:07:09;;;;;;;4.10;3.00;;;;;;;17.61;50.10;98472.20;105739;1258;75977;-40
2024/02/01 05:09:38;;;;;;;3.40;3.10;;;;;;;17.61;50.10;98480.61;105692;1258;66230;-41
2024/02/01 05:12:08;;;;;;;4.30;2.90;;;;;;;17.61;50.13;98476.45;105590;1254;72316;-41
2024/02/01 05:14:35;;;;;;;3.20;2.90;;;;;;;17.61;50.12;98476.75;105422;1259;61264;-41
2024/02/01 05:17:02;;;;;;;3.50;3.10;;;;;;;17.61;50.14;98475.73;105695;1256;61235;-41
2024/02/01 05:19:29;;;;;;;4.10;3.40;;;;;;;17.61;50.16;98466.69;105483;1259;74322;-41
2024/02/01 05:21:56;;;;;;;3.50;2.80;;;;;;;17.61;50.09;98463.36;105552;1258;65580;-40
2024/02/01 05:24:23;;;;;;;4.00;3.10;;;;;;;17.61;50.10;98460.66;105648;1254;72370;-40
2024/02/01 05:26:51;;;;;;;3.30;3.00;;;;;;;17.61;50.09;98448.17;105649;1260;63840;-40
2024/02/01 05:29:21;;;;;;;3.40;3.10;;;;;;;17.61;50.14;98432.69;105593;1254;61261;-39
2024/02/01 05:31:49;;;;;;;3.20;2.90;;;;;;;17.61;50.15;98426.28;105630;1254;74644;-40
2024/02/01 05:34:17;;;;;;;3.20;2.90;;;;;;;17.61;50.13;98431.06;105531;1259;65904;-41
2024/02/01 05:36:47;;;;;;;3.10;2.80;;;;;;;17.61;50.19;98427.14;105589;1254;72461;-41
2024/02/01 05:39:27;;;;;;;3.30;3.00;;;;;;;17.61;50.02;98420.70;105461;1259;61240;-41
2024/02/01 05:41:57;;;;;;;3.30;3.00;;;;;;;17.61;50.09;98416.60;105604;1254;61224;-41
2024/02/01 05:44:25;;;;;;;3.30;3.00;;;;;;;17.61;50.17;98413.51;105537;1255;74565;-40
2024/02/01 05:46:53;;;;;;;3.20;2.90;;;;;;;17.61;50.13;98413.27;105437;1254;66491;-42
2024/02/01 05:49:24;;;;;;;3.10;2.80;;;;;;;17.61;50.08;98411.88;105605;1254;72643;-42
2024/02/01 05:51:52;;;;;;;4.40;3.00;;;;;;;17.60;50.09;98411.24;105516;1259;61273;-39
2024/02/01 05:54:20;;;;;;;3.50;3.10;;;;;;;17.61;50.10;98412.04;105513;1254;61336;-41
2024/02/01 05:56:47;;;;;;;3.30;3.00;;;;;;;17.60;50.08;98410.06;105618;1259;74438;-40
2024/02/01 05:59:19;;;;;;;3.20;2.90;;;;;;;17.61;50.11;98411.49;105522;1260;65882;-40
2024/02/01 06:01:46;;;;;;;3.70;2.90;;;;;;;17.61;50.08;98415.37;105410;1259;72422;-41
2024/02/01 06:04:13;;;;;;;3.60;3.10;;;;;;;17.61;50.08;98415.51;105530;1260;61359;-41
2024/02/01 06:06:44;;;;;;;3.50;2.80;;;;;;;17.61;50.06;98414.13;105613;1255;61201;-40
2024/02/01 06:09:14;;;;;;;3.40;3.10;;;;;;;17.61;50.15;98409.95;105498;1255;74518;-42
2024/02/01 06:11:44;;;;;;;3.50;3.00;;;;;;;17.62;50.21;98406.96;105444;1256;64903;-43
2024/02/01 06:14:14;;;;;;;3.50;2.90;;;;;;;17.62;50.31;98413.02;105408;1257;72601;-46
2024/02/01 06:16:41;;;;;;;3.80;3.30;;;;;;;17.63;50.34;98416.39;105505;1258;61237;-43
2024/02/01 06:19:08;;;;;;;3.50;2.90;;;;;;;17.64;50.41;98419.51;105626;1255;61279;-44
2024/02/01 06:21:35;;;;;;;4.20;3.30;;;;;;;17.65;50.38;98415.52;105552;1254;74587;-43
2024/02/01 06:24:02;;;;;;;3.60;3.10;;;;;;;17.66;50.44;98413.16;105502;1255;66137;-43
2024/02/01 06:26:29;;;;;;;3.60;3.10;;;;;;;17.66;50.46;98412.32;105547;1258;71277;-43
2024/02/01 06:29:00;;;;;;;4.20;3.30;;;;;;;17.67;50.53;98410.73;105508;1259;61134;-42
2024/02/01 06:31:27;;;;;;;3.50;3.10;;;;;;;17.67;50.61;98404.64;105421;1254;61276;-42
2024/02/01 06:33:54;;;;;;;4.00;3.30;;;;;;;17.68;50.66;98404.23;105605;1254;75566;-42
2024/02/01 06:36:29;;;;;;;3.90;3.20;;;;;;;17.69;50.61;98399.65;105284;1260;66393;-43
2024/02/01 06:41:29;;;;;;;4.90;3.30;;;;;;;17.71;50.72;98385.73;105260;1254;61485;-42
2024/02/01 06:44:09;;;;;;;3.70;3.30;;;;;;;17.72;50.79;98385.30;105385;1257;61279;-41
2024/02/01 06:47:05;;;;;;;5.30;3.20;;;;;;;17.73;50.80;98382.72;105496;1256;75227;-41
2024/02/01 06:52:14;;;;;;;4.60;3.30;;;;;;;17.73;50.61;98380.48;105708;1257;73537;-42
2024/02/01 06:55:06;;;;;;;4.70;3.60;;;;;;;17.74;50.46;98378.17;105398;1254;61237;-42
2024/02/01 07:03:02;;;;;;;4.50;3.60;;;;;;;17.75;50.30;98373.27;105562;1259;67103;-41
2024/02/01 07:08:26;;;;;;;4.20;3.40;;;;;;;17.75;50.23;98359.66;105460;1259;61224;-41
2024/02/01 07:11:01;;;;;;;4.60;3.90;;;;;;;17.75;50.25;98355.55;105409;1255;61218;-42
2024/02/01 07:16:35;;;;;;;3.80;3.40;;;;;;;17.75;50.20;98356.88;105508;1259;67258;-41
2024/02/01 07:22:03;;;;;;;3.80;3.40;;;;;;;17.76;50.16;98358.31;105345;1259;61957;-39
2024/02/01 07:24:46;;;;;;;5.10;3.90;;;;;;;17.76;50.18;98354.52;105613;1254;61248;-40
2024/02/01 07:57:43;;;;;;;8.80;3.50;;;;;;;17.85;50.51;98330.75;105297;1257;66207;-44
2024/02/01 08:00:17;;;;;;;7.20;3.50;;;;;;;17.86;50.53;98328.62;105428;1256;72387;-42
2024/02/01 08:02:52;;;;;;;12.90;3.60;;;;;;;17.87;50.74;98326.73;105697;1256;61269;-41
2024/02/01 08:08:05;;;;;;;7.30;3.70;;;;;;;17.89;50.91;98323.98;105544;1259;74900;-41
2024/02/01 08:10:32;;;;;;;6.10;3.40;;;;;;;17.90;50.93;98325.17;105483;1254;66970;-44
2024/02/01 08:13:05;;;;;;;6.40;3.30;;;;;;;17.92;51.02;98319.33;105562;1257;73297;-41
2024/02/01 08:15:32;;;;;;;5.30;3.70;;;;;;;17.93;50.97;98316.58;105620;1258;61696;-41
2024/02/01 08:17:59;;;;;;;7.00;3.60;;;;;;;17.94;51.07;98318.41;105526;1254;61724;-41
2024/02/01 08:20:26;;;;;;;7.70;3.20;;;;;;;17.95;51.08;98311.79;105758;1258;74411;-42
2024/02/01 08:22:59;;;;;;;5.30;3.80;;;;;;;17.96;51.09;98303.64;105430;1259;66052;-42
2024/02/01 08:25:33;;;;;;;6.60;3.70;;;;;;;17.97;51.12;98299.96;105486;1257;71237;-42
2024/02/01 08:28:00;;;;;;;5.10;3.60;;;;;;;17.99;51.20;98299.33;105490;1259;61314;-42
2024/02/01 08:30:31;;;;;;;4.60;3.70;;;;;;;18.01;51.15;98296.21;105553;1257;61332;-40
2024/02/01 08:33:04;;;;;;;4.00;3.60;;;;;;;18.02;51.18;98304.84;105744;1257;74851;-41
2024/02/01 08:35:33;;;;;;;5.40;3.60;;;;;;;18.03;51.16;98307.60;105608;1259;66147;-42
2024/02/01 08:38:04;;;;;;;6.80;3.80;;;;;;;18.04;51.19;98301.15;105281;1257;73676;-41
2024/02/01 08:40:30;;;;;;;7.70;3.70;;;;;;;18.06;51.23;98308.73;105272;1254;61438;-43
2024/02/01 08:43:00;;;;;;;12.50;3.70;;;;;;;18.08;51.18;98306.80;105391;1257;61317;-41
2024/02/01 08:45:28;;;;;;;28.00;4.60;;;;;;;18.09;51.26;98304.83;105155;1259;75148;-42
2024/02/01 08:48:02;;;;;;;23.80;4.80;;;;;;;18.11;51.44;98306.43;106108;1256;65210;-40
2024/02/01 08:50:34;;;;;;;26.80;4.90;;;;;;;18.12;51.40;98300.30;105339;1257;73642;-43
2024/02/01 08:53:01;;;;;;;27.30;4.80;;;;;;;18.14;51.47;98298.65;105338;1256;61306;-43
2024/02/01 08:55:28;;;;;;;13.00;4.40;;;;;;;18.16;51.53;98301.52;105302;1256;61330;-42
2024/02/01 08:57:55;;;;;;;16.60;4.20;;;;;;;18.17;51.53;98300.80;105347;1257;75386;-41
2024/02/01 09:00:25;;;;;;;16.40;3.80;;;;;;;18.19;51.56;98298.52;105328;1259;66001;-41
2024/02/01 09:03:06;;;;;;;11.00;4.30;;;;;;;18.21;51.53;98291.00;106848;1255;73778;-38
2024/02/01 09:05:34;;;;;;;11.10;4.10;;;;;;;18.23;51.58;98288.54;105125;1259;61356;-52
2024/02/01 09:08:02;;;;;;;11.90;4.30;;;;;;;18.25;51.56;98290.77;109152;1257;60052;-44
2024/02/01 09:10:30;;;;;;;12.00;4.20;;;;;;;18.27;51.60;98285.88;106331;1256;74457;-40
2024/02/01 09:12:56;;;;;;;11.80;4.10;;;;;;;18.30;51.48;98285.98;105257;1259;65894;-42
2024/02/01 09:15:26;;;;;;;25.40;5.10;;;;;;;18.31;51.40;98285.42;105335;1257;73482;-42
2024/02/01 09:17:56;;;;;;;60.90;6.60;;;;;;;18.33;51.33;98283.02;109088;1255;59038;-42
2024/02/01 09:20:23;;;;;;;70.70;6.60;;;;;;;18.36;51.30;98284.05;106154;1259;61253;-41
2024/02/01 09:22:54;;;;;;;52.10;6.20;;;;;;;18.38;51.24;98279.23;105278;1261;76122;-43
2024/02/01 09:25:24;;;;;;;70.90;6.70;;;;;;;18.41;51.22;98274.67;109151;1254;66804;-43
2024/02/01 09:27:52;;;;;;;51.30;5.90;;;;;;;18.42;51.26;98271.00;106320;1255;73552;-40
2024/02/01 09:30:22;;;;;;;68.40;6.50;;;;;;;18.44;51.20;98272.40;105054;1257;61238;-38
2024/02/01 09:32:51;;;;;;;50.60;6.90;;;;;;;18.46;51.35;98272.95;108456;1254;61101;-39
2024/02/01 09:35:18;;;;;;;47.30;5.90;;;;;;;18.47;51.29;98265.87;105970;1257;74620;-39
2024/02/01 09:37:45;;;;;;;33.40;5.30;;;;;;;18.48;51.37;98258.75;105617;1259;65978;-42
2024/02/01 09:40:12;;;;;;;23.60;5.00;;;;;;;18.49;51.40;98257.70;109112;1256;72571;-40
2024/02/01 09:42:41;;;;;;;23.40;5.00;;;;;;;18.49;51.43;98253.91;105614;1259;61324;-42
2024/02/01 09:45:09;;;;;;;24.90;4.60;;;;;;;18.50;51.48;98250.93;105500;1260;61313;-44
2024/02/01 09:47:49;;;;;;;21.80;5.00;;;;;;;18.51;51.51;98248.33;105833;1254;73172;-45
2024/02/01 09:50:19;;;;;;;23.60;5.20;;;;;;;18.51;51.57;98245.70;105283;1259;66271;-42
2024/02/01 09:52:48;;;;;;;27.10;5.50;;;;;;;18.51;51.60;98247.80;109242;1254;72352;-42
2024/02/01 09:55:18;;;;;;;18.90;4.30;;;;;;;18.52;51.71;98245.27;109149;1253;61938;-41
2024/02/01 09:57:49;;;;;;;15.70;4.30;;;;;;;18.54;51.79;98243.94;109236;1254;61171;-41
2024/02/01 10:00:22;;;;;;;19.40;4.30;;;;;;;18.55;51.84;98232.75;107334;1256;75415;-40
2024/02/01 10:02:51;;;;;;;14.50;4.30;;;;;;;18.57;51.80;98219.71;105431;1259;65007;-42
2024/02/01 10:05:19;;;;;;;17.10;4.00;;;;;;;18.59;51.85;98206.52;105195;1259;74016;-40
2024/02/01 10:07:46;;;;;;;12.10;4.20;;;;;;;18.60;51.82;98203.38;105580;1259;61264;-41
2024/02/01 10:10:16;;;;;;;13.40;4.60;;;;;;;18.61;51.89;98197.59;105330;1255;62942;-39
2024/02/01 10:12:43;;;;;;;12.80;4.40;;;;;;;18.61;51.84;98193.41;105707;1257;75363;-40
2024/02/01 10:15:10;;;;;;;18.50;4.30;;;;;;;18.62;51.81;98191.20;105538;1258;66937;-41
2024/02/01 10:17:45;;;;;;;11.20;4.20;;;;;;;18.62;51.82;98181.11;105441;1257;73772;-40
2024/02/01 10:20:44;;;;;;;13.40;4.20;;;;;;;18.63;51.84;98176.19;105336;1260;61202;-40
2024/02/01 10:23:14;;;;;;;13.10;4.10;;;;;;;18.63;51.66;98168.05;105496;1257;61216;-37
2024/02/01 10:25:44;;;;;;;9.90;3.90;;;;;;;18.63;51.66;98159.70;105396;1259;75687;-38
2024/02/01 10:28:17;;;;;;;8.90;3.80;;;;;;;18.65;51.71;98156.44;105843;1260;67373;-37
2024/02/01 10:30:45;;;;;;;7.80;4.10;;;;;;;18.68;51.70;98155.81;107499;1259;73520;-38
2024/02/01 10:33:13;;;;;;;8.20;3.90;;;;;;;18.72;51.71;98150.69;105617;1255;63022;-37
2024/02/01 10:35:42;;;;;;;7.20;3.80;;;;;;;18.75;51.63;98141.11;105527;1260;61286;-38
2024/02/01 10:38:13;;;;;;;8.00;4.10;;;;;;;18.78;51.52;98136.48;105535;1259;75454;-35
2024/02/01 10:41:02;;;;;;;8.20;4.60;;;;;;;18.81;51.35;98136.63;105316;1257;67276;-39
2024/02/01 10:43:30;;;;;;;5.50;3.80;;;;;;;18.82;51.05;98131.47;105565;1257;73760;-37
2024/02/01 10:46:07;;;;;;;6.90;4.30;;;;;;;18.84;50.96;98131.98;105517;1257;158684;-38
2024/02/01 10:49:10;;;;;;;7.40;4.40;;;;;;;18.85;50.78;98134.73;105567;1257;61266;-37
2024/02/01 10:51:37;;;;;;;5.40;4.00;;;;;;;18.86;50.68;98129.73;105973;1265;75351;-38
2024/02/01 10:54:04;;;;;;;6.20;4.30;;;;;;;18.87;50.65;98131.31;105385;1257;65757;-38
2024/02/01 10:56:31;;;;;;;8.20;4.00;;;;;;;18.88;50.60;98125.84;105156;1257;71740;-38
2024/02/01 10:58:59;;;;;;;7.80;4.00;;;;;;;18.88;50.46;98127.40;105464;1259;61266;-40
2024/02/01 11:01:25;;;;;;;9.00;4.20;;;;;;;18.89;50.04;98118.73;105500;1256;60160;-39
2024/02/01 11:03:55;;;;;;;11.70;4.50;;;;;;;18.88;49.84;98115.77;105372;1257;75134;-38
2024/02/01 11:06:24;;;;;;;7.20;4.20;;;;;;;18.88;49.75;98113.02;106648;1259;66525;-39
2024/02/01 11:08:51;;;;;;;7.10;4.50;;;;;;;18.87;49.58;98112.39;105489;1255;74097;-40
2024/02/01 11:11:20;;;;;;;6.40;3.90;;;;;;;18.86;49.53;98110.21;105462;1256;61452;-40
2024/02/01 11:14:15;;;;;;;6.00;4.20;;;;;;;18.85;49.50;98108.08;105439;1258;61250;-39
2024/02/01 11:16:45;;;;;;;7.70;4.20;;;;;;;18.84;49.53;98098.20;105426;1259;75440;-39
2024/02/01 11:19:13;;;;;;;4.40;4.00;;;;;;;18.84;49.57;98096.25;105558;1259;66104;-40
2024/02/01 11:21:57;;;;;;;4.80;3.50;;;;;;;18.84;49.58;98080.98;105486;1259;72096;-40
2024/02/01 11:24:27;;;;;;;6.70;4.20;;;;;;;18.83;49.48;98082.20;105416;1259;61152;-39
2024/02/01 11:26:57;;;;;;;4.60;4.00;;;;;;;18.83;49.57;98077.76;105367;1259;61269;-39
2024/02/01 11:29:26;;;;;;;5.90;4.00;;;;;;;18.83;49.63;98077.70;105455;1259;75467;-39
2024/02/01 11:31:57;;;;;;;5.60;3.90;;;;;;;18.83;49.66;98077.15;105168;1261;67012;-39
2024/02/01 11:34:24;;;;;;;4.70;3.60;;;;;;;18.83;49.53;98072.48;105475;1257;73379;-37
2024/02/01 11:36:51;;;;;;;4.70;4.00;;;;;;;18.83;49.53;98064.66;105484;1254;61340;-40
2024/02/01 11:39:19;;;;;;;6.10;3.90;;;;;;;18.83;49.49;98059.79;105602;1257;61396;-40
2024/02/01 11:41:51;;;;;;;4.40;3.40;;;;;;;18.83;49.50;98049.31;105437;1259;74684;-40
2024/02/01 11:44:18;;;;;;;7.80;3.60;;;;;;;18.83;49.45;98051.80;105463;1255;66917;-41
2024/02/01 11:46:46;;;;;;;5.30;3.70;;;;;;;18.82;49.44;98055.64;105440;1257;73289;-38
2024/02/01 11:49:18;;;;;;;4.90;3.70;;;;;;;18.81;49.52;98052.45;105407;1259;61178;-38
2024/02/01 11:51:50;;;;;;;5.70;3.80;;;;;;;18.81;49.50;98054.98;105670;1257;61364;-42
2024/02/01 11:54:19;;;;;;;6.70;3.80;;;;;;;18.81;49.57;98057.46;105428;1259;74485;-42
2024/02/01 11:56:46;;;;;;;6.70;3.50;;;;;;;18.79;49.73;98051.92;105252;1259;67297;-38
2024/02/01 11:59:13;;;;;;;8.20;3.80;;;;;;;18.79;49.74;98055.25;105256;1254;73400;-40
2024/02/01 12:01:40;;;;;;;7.20;3.60;;;;;;;18.78;49.79;98053.44;105437;1257;61174;-40
2024/02/01 12:04:07;;;;;;;5.50;3.90;;;;;;;18.77;49.72;98041.70;105618;1254;61282;-39
2024/02/01 12:06:34;;;;;;;5.20;3.70;;;;;;;18.76;49.73;98038.63;105406;1259;75284;-39
2024/02/01 12:09:02;;;;;;;5.40;3.70;;;;;;;18.75;49.71;98032.03;105404;1259;66007;-39
2024/02/01 12:11:34;;;;;;;6.00;3.80;;;;;;;18.75;49.68;98023.89;105824;1257;73501;-38
2024/02/01 12:14:11;;;;;;;6.80;3.90;;;;;;;18.75;49.56;98015.81;105467;1260;61295;-38
2024/02/01 12:16:39;;;;;;;4.80;3.90;;;;;;;18.76;49.53;98009.80;105444;1254;61361;-38
2024/02/01 12:19:12;;;;;;;4.80;3.70;;;;;;;18.77;49.46;98012.23;105558;1257;74626;-38
2024/02/01 12:21:40;;;;;;;6.20;3.40;;;;;;;18.77;49.48;98007.73;105434;1259;67208;-39
2024/02/01 12:24:08;;;;;;;5.40;3.80;;;;;;;18.79;49.34;98016.88;105507;1259;73695;-39
2024/02/01 12:26:36;;;;;;;5.10;3.40;;;;;;;18.79;49.36;98019.75;105315;1261;61280;-39